createdAt,value
2022-09-13T00:01:38.393Z,1009.71
2022-09-13T00:16:38.485Z,1009.53
2022-09-13T00:31:38.609Z,1009.27
2022-09-13T00:46:39.453Z,1008.86
2022-09-13T01:01:40.731Z,1008.90
2022-09-13T01:16:42.943Z,1008.84
2022-09-13T01:31:46.201Z,1008.65
2022-09-13T01:46:46.233Z,1008.52
2022-09-13T02:01:47.677Z,1008.35
2022-09-13T02:16:48.272Z,1008.17
2022-09-13T02:31:49.732Z,1007.84
2022-09-13T02:46:49.686Z,1007.80
2022-09-13T03:01:49.821Z,1007.41
2022-09-13T03:16:49.983Z,1007.39
2022-09-13T03:31:50.106Z,1007.17
2022-09-13T03:46:50.075Z,1007.03
2022-09-13T04:01:50.326Z,1006.83
2022-09-13T04:16:50.762Z,1006.67
2022-09-13T04:31:51.001Z,1006.48
2022-09-13T04:46:50.970Z,1006.29
2022-09-13T05:01:51.105Z,1005.90
2022-09-13T05:16:51.760Z,1006.47
2022-09-13T05:31:52.301Z,1006.28
2022-09-13T05:46:52.613Z,1006.55
2022-09-13T06:01:52.626Z,1006.56
2022-09-13T06:16:53.418Z,1006.52
2022-09-13T06:31:54.371Z,1006.40
2022-09-13T06:46:54.993Z,1006.05
2022-09-13T07:01:55.169Z,1005.83
2022-09-13T07:16:55.204Z,1005.85
2022-09-13T07:31:55.986Z,1005.89
2022-09-13T07:46:55.905Z,1005.91
2022-09-13T08:01:56.153Z,1005.76
2022-09-13T08:16:56.119Z,1005.92
2022-09-13T08:31:56.262Z,1006.19
2022-09-13T08:46:57.289Z,1005.99
2022-09-13T09:01:57.514Z,1005.88
2022-09-13T09:16:57.553Z,1005.78
2022-09-13T09:31:57.677Z,1005.84
2022-09-13T09:46:57.702Z,1005.93
2022-09-13T10:01:58.019Z,1005.80
2022-09-13T10:16:57.938Z,1005.64
2022-09-13T10:31:58.113Z,1005.54
2022-09-13T10:46:58.099Z,1005.39
2022-09-13T11:01:58.224Z,1005.57
2022-09-13T11:16:58.365Z,1005.51
2022-09-13T11:31:58.608Z,1005.46
2022-09-13T11:46:59.015Z,1005.47
2022-09-13T12:01:59.673Z,1005.50
2022-09-13T12:17:01.591Z,1005.44
2022-09-13T12:32:01.647Z,1005.44
2022-09-13T12:47:01.669Z,1005.36
2022-09-13T13:02:01.938Z,1005.30
2022-09-13T13:17:01.910Z,1005.12
2022-09-13T13:32:02.197Z,1004.85
2022-09-13T13:47:02.123Z,1004.65
2022-09-13T14:02:02.447Z,1004.81
2022-09-13T14:17:02.379Z,1004.89
2022-09-13T14:32:02.389Z,1004.84
2022-09-13T14:47:02.544Z,1004.68
2022-09-13T15:02:03.209Z,1004.51
2022-09-13T15:17:03.657Z,1004.36
2022-09-13T15:32:03.901Z,1004.15
2022-09-13T15:47:03.979Z,1004.22
2022-09-13T16:02:03.992Z,1004.28
2022-09-13T16:17:04.046Z,1004.14
2022-09-13T16:32:04.193Z,1004.05
2022-09-13T16:47:04.305Z,1004.07
2022-09-13T17:02:04.494Z,1004.17
2022-09-13T17:17:04.480Z,1004.22
2022-09-13T17:32:04.594Z,1004.29
2022-09-13T17:47:04.680Z,1004.38
2022-09-13T18:02:04.875Z,1004.35
2022-09-13T18:17:04.883Z,1004.46
2022-09-13T18:32:05.084Z,1004.53
2022-09-13T18:47:05.079Z,1004.66
2022-09-13T19:02:05.262Z,1004.72
2022-09-13T19:17:05.384Z,1004.67
2022-09-13T19:32:05.639Z,1004.73
2022-09-13T19:47:53.265Z,1004.69
2022-09-13T20:02:11.299Z,1004.76
2022-09-13T20:17:11.365Z,1004.78
2022-09-13T20:32:11.466Z,1004.89
2022-09-13T20:47:11.432Z,1004.81
2022-09-13T21:02:11.636Z,1004.63
2022-09-13T21:17:11.739Z,1004.75
2022-09-13T21:32:11.702Z,1004.75
2022-09-13T21:47:12.753Z,1004.75
2022-09-13T22:02:13.023Z,1004.75
2022-09-13T22:17:13.052Z,1004.70
2022-09-13T22:32:14.843Z,1004.69
2022-09-13T22:47:14.916Z,1004.73
2022-09-13T23:02:15.672Z,1004.72
2022-09-13T23:17:16.143Z,1004.84
2022-09-13T23:32:15.793Z,1004.70
2022-09-13T23:47:15.923Z,1004.75
